Portada
METAR-TAF:

METAR-TAF

Aeropuertos :

Aeropuerto Internacional de Dakar-Yoff/Léopold Sédar Senghor

Dakar, Senegal

latitud: 14-44N, longitud: 017-30W, altitud: 27 m

Observación

El informe se hizo hace 53 minutos, a las 01:00 UTC
Viento 4 kt del norte-noroeste
Temperatura 24°C
Humedad 100%
Presión 1011 hPa
Visibilidad: 8000 m

METAR: GOOY 250100Z 34004KT 8000 NSC 24/24 Q1011

Hora: 01:53 (01:53 UTC)

Pronóstico

El informe se hizo hace 2 horas y 23 minutos, a las 23:30 UTC
Pronóstico válido del 25 a las 00 UTC al 26 a las 06 UTC
Viento 8 kt del norte
Visibilidad 10 km o más
Nubes dispersas a una altura de 1300 ft

TAF: GOOY 242330Z 2500/2606 36008KT 9999 SCT013

Observaciones y pronósticos meteorológicos de más de 4000 aeropuertos (mensajes METAR y TAF).

Los puntos amarillos y rojos representan las estaciones disponibles.

Ponga el ratón en el punto deseado para ver el nombre de la estación.

Haga clic para ver las observaciones y los pronósticos meteorológicos.

Para cambiar el mapa : haga clic en los botones verdes con una cruz de color negro para hacer un zoom, en el botón verde con un guión para alejar o en las flechas verdes para mapas adyacentes.


METAR-TAF: